Thunder radar more information blitzortung!


Radar de pluja more information rain snow radar


Visita la nostra xarxa de llocs de meteo:

Template documentation
and downloads

And another site



No particular awareness of the weather is required.    There are no Weather-warnings

Pagina Historial Weather Underground text

Diari Resum February 28, 2016 Unitats:  Mètric    Imperial   Tant
« Previous Dia
SegĂźent Dia »
Diari Setmana Mensual Anual Personalitzada
  Maxima: Minima: Media:
Temperatura: 13.5 °C 5.2 °C 9.9 °C
Punt de rosada: 5.3 °C 2.0 °C 4 °C
Humitat: 84 % 54 % 67 %
Wind Speed: 13.0 km/h 0.0 km/h 5.6 km/h
RĂ fegues de vent: 13.0 km/h - -
Vent:- - SSE
Pression baro: 1003.9 hPa 991.8 hPa -
Precipitacions: 2.0 mm    
Historical Graphs
 
 
Dades de taula per February 28, 2016
Temps Temperatura Punt de rosada Pression baro Vent Wind Speed RĂ fegues de vent Humitat Rainfall Rate (Hourly)
00:05 6.3 °C 2.2 °C 995.8 hPa NE 4.8 km/h 9.7 km/h 75 % 0.0 mm
00:15 6.4 °C 2.1 °C 995.8 hPa NE 4.8 km/h 9.7 km/h 74 % 0.0 mm
00:25 6.4 °C 2.1 °C 995.8 hPa NE 4.8 km/h 6.4 km/h 74 % 0.0 mm
00:35 6.4 °C 2.1 °C 995.8 hPa NE 3.2 km/h 6.4 km/h 74 % 0.0 mm
00:45 6.5 °C 2.2 °C 995.8 hPa NE 4.8 km/h 6.4 km/h 74 % 0.0 mm
00:55 6.5 °C 2.2 °C 996.8 hPa NE 9.7 km/h 9.7 km/h 74 % 0.0 mm
01:05 6.5 °C 2.2 °C 996.8 hPa NNE 4.8 km/h 9.7 km/h 74 % 0.0 mm
01:15 6.5 °C 2.2 °C 996.8 hPa NNE 4.8 km/h 6.4 km/h 74 % 0.0 mm
01:25 6.5 °C 2.2 °C 996.8 hPa NNE 4.8 km/h 9.7 km/h 74 % 0.0 mm
01:35 6.5 °C 2.2 °C 997.9 hPa NE 4.8 km/h 8.0 km/h 74 % 0.0 mm
01:45 6.6 °C 2.3 °C 997.9 hPa NE 8.0 km/h 9.7 km/h 74 % 0.0 mm
01:55 6.7 °C 2.2 °C 997.9 hPa NE 8.0 km/h 11.3 km/h 73 % 0.0 mm
02:05 6.8 °C 2.3 °C 997.9 hPa NE 4.8 km/h 12.9 km/h 73 % 0.0 mm
02:15 6.8 °C 2.3 °C 997.9 hPa NE 4.8 km/h 12.9 km/h 73 % 0.0 mm
02:25 6.7 °C 2.2 °C 996.8 hPa NE 8.0 km/h 8.0 km/h 73 % 0.0 mm
02:35 6.6 °C 2.1 °C 998.9 hPa NE 8.0 km/h 9.7 km/h 73 % 0.0 mm
02:45 6.7 °C 2.0 °C 998.9 hPa NE 4.8 km/h 9.7 km/h 72 % 0.0 mm
02:55 6.8 °C 2.1 °C 998.9 hPa NE 8.0 km/h 9.7 km/h 72 % 0.0 mm
03:05 6.8 °C 2.1 °C 998.9 hPa NE 9.7 km/h 9.7 km/h 72 % 0.0 mm
03:15 7.6 °C 2.7 °C 998.9 hPa NE 9.7 km/h 12.9 km/h 71 % 0.0 mm
03:25 8.0 °C 3.1 °C 999.9 hPa NNE 8.0 km/h 12.9 km/h 71 % 0.0 mm
03:35 8.7 °C 3.6 °C 999.9 hPa NNE 3.2 km/h 9.7 km/h 70 % 0.0 mm
03:45 9.0 °C 3.6 °C 999.9 hPa NNE 8.0 km/h 8.0 km/h 69 % 0.0 mm
03:55 9.2 °C 3.6 °C 999.9 hPa NE 4.8 km/h 9.7 km/h 68 % 0.0 mm
04:05 9.5 °C 3.9 °C 998.9 hPa NNE 8.0 km/h 9.7 km/h 68 % 0.0 mm
04:15 10.0 °C 4.3 °C 998.9 hPa NNE 3.2 km/h 6.4 km/h 68 % 0.0 mm
04:25 10.0 °C 4.2 °C 999.9 hPa NNE 8.0 km/h 11.3 km/h 67 % 0.0 mm
04:35 9.9 °C 3.8 °C 999.9 hPa NNE 4.8 km/h 8.0 km/h 66 % 0.0 mm
04:45 10.5 °C 4.2 °C 999.9 hPa NNE 8.0 km/h 11.3 km/h 65 % 0.0 mm
04:55 11.0 °C 4.7 °C 998.9 hPa NNE 4.8 km/h 9.7 km/h 65 % 0.0 mm
06:55 11.6 °C 3.8 °C 998.9 hPa ENE 4.8 km/h 9.7 km/h 59 % 0.0 mm
10:54 5.2 °C 2.7 °C 991.8 hPa North 5.6 km/h   84 % 3.0 mm
10:59 11.1 °C 4.3 °C 999.9 hPa NE 10.3 km/h 10.3 km/h 63 % 0.0 mm
11:04 11.2 °C 4.6 °C 999.9 hPa ESE 9.7 km/h 9.7 km/h 64 % 0.0 mm
11:14 11.3 °C 4.5 °C 999.9 hPa ENE 9.3 km/h 9.3 km/h 63 % 0.0 mm
11:19 11.2 °C 4.4 °C 999.9 hPa NNE 11.9 km/h 11.9 km/h 63 % 0.0 mm
11:24 11.1 °C 4.1 °C 999.9 hPa NNE 7.4 km/h 7.4 km/h 62 % 0.0 mm
11:29 11.3 °C 4.1 °C 999.9 hPa NE 9.3 km/h 9.3 km/h 61 % 0.0 mm
11:34 11.4 °C 4.4 °C 999.9 hPa NE 11.1 km/h 11.1 km/h 62 % 0.0 mm
11:39 11.7 °C 4.4 °C 999.9 hPa NE 9.3 km/h 9.3 km/h 61 % 0.0 mm
11:44 11.4 °C 3.9 °C 999.9 hPa East 9.3 km/h 9.5 km/h 60 % 0.0 mm
11:49 11.1 °C 3.4 °C 999.9 hPa NNE 13.0 km/h 13.0 km/h 59 % 0.0 mm
11:54 11.0 °C 3.3 °C 999.9 hPa NNE 11.1 km/h 11.1 km/h 59 % 0.0 mm
11:59 11.0 °C 3.5 °C 1000.9 hPa ENE 9.3 km/h 9.3 km/h 60 % 0.0 mm
12:04 11.1 °C 3.6 °C 1000.9 hPa NNE 9.5 km/h 9.5 km/h 60 % 0.0 mm
12:09 11.0 °C 3.5 °C 1000.9 hPa ENE 7.4 km/h 7.4 km/h 60 % 0.0 mm
12:14 11.0 °C 3.3 °C 1000.9 hPa NNE 13.0 km/h 13.0 km/h 59 % 0.0 mm
12:19 11.0 °C 3.3 °C 1000.9 hPa ENE 9.3 km/h 9.3 km/h 59 % 0.0 mm
12:24 10.8 °C 3.1 °C 1000.9 hPa NE 9.3 km/h 9.3 km/h 59 % 0.0 mm
12:29 10.9 °C 3.4 °C 1000.9 hPa ENE 11.1 km/h 11.1 km/h 60 % 0.0 mm
12:34 11.4 °C 3.9 °C 1000.9 hPa NNE 9.3 km/h 9.3 km/h 60 % 0.0 mm
12:39 11.5 °C 3.8 °C 1000.9 hPa NNE 7.4 km/h 9.0 km/h 59 % 0.0 mm
12:44 11.6 °C 3.6 °C 1000.9 hPa North 11.1 km/h 11.1 km/h 58 % 0.0 mm
12:49 11.6 °C 3.8 °C 1000.9 hPa ESE 9.3 km/h 9.3 km/h 59 % 0.0 mm
12:59 11.7 °C 3.9 °C 1000.9 hPa NE 9.0 km/h 9.0 km/h 59 % 0.0 mm
13:04 11.7 °C 3.9 °C 1000.9 hPa ESE 7.4 km/h 7.4 km/h 59 % 0.0 mm
13:10 11.7 °C 3.9 °C 1000.9 hPa SE 7.4 km/h 7.4 km/h 59 % 0.0 mm
13:15 11.7 °C 3.9 °C 1000.9 hPa ENE 6.9 km/h 6.9 km/h 59 % 0.0 mm
13:20 11.7 °C 3.9 °C 1000.9 hPa ENE 9.3 km/h 9.3 km/h 59 % 0.0 mm
13:25 12.0 °C 4.2 °C 1000.9 hPa East 9.3 km/h 9.3 km/h 59 % 0.0 mm
13:35 12.2 °C 4.2 °C 1000.9 hPa ESE 5.6 km/h 5.6 km/h 58 % 0.0 mm
13:40 12.1 °C 4.1 °C 1000.9 hPa ENE 5.6 km/h 5.6 km/h 58 % 0.0 mm
13:45 12.3 °C 4.3 °C 1000.9 hPa East 6.4 km/h 6.4 km/h 58 % 0.0 mm
13:50 12.4 °C 4.3 °C 1000.9 hPa NE 7.4 km/h 7.4 km/h 58 % 0.0 mm
13:55 12.4 °C 4.3 °C 1000.9 hPa ENE 11.1 km/h 11.1 km/h 58 % 0.0 mm
14:00 12.3 °C 4.3 °C 1000.9 hPa ESE 7.9 km/h 7.9 km/h 58 % 0.0 mm
14:10 12.1 °C 4.1 °C 1000.9 hPa ESE 13.0 km/h 13.0 km/h 58 % 0.0 mm
14:15 12.3 °C 4.3 °C 1000.9 hPa SSE 9.7 km/h 9.7 km/h 58 % 0.0 mm
14:20 12.8 °C 4.7 °C 1000.9 hPa ESE 11.1 km/h 11.1 km/h 58 % 0.0 mm
14:25 12.9 °C 4.6 °C 1000.9 hPa ENE 9.3 km/h 9.3 km/h 57 % 0.0 mm
14:30 12.8 °C 4.5 °C 999.9 hPa SE 4.7 km/h 4.7 km/h 57 % 0.0 mm
14:35 12.9 °C 4.6 °C 999.9 hPa South 3.7 km/h 3.7 km/h 57 % 0.0 mm
14:40 12.9 °C 4.8 °C 999.9 hPa SW 1.9 km/h 2.3 km/h 58 % 0.0 mm
14:45 13.0 °C 4.4 °C 1000.9 hPa South 5.6 km/h 5.6 km/h 56 % 0.0 mm
14:50 13.0 °C 4.7 °C 1000.9 hPa ESE 5.3 km/h 5.3 km/h 57 % 0.0 mm
14:55 13.1 °C 4.5 °C 1000.9 hPa SE 3.9 km/h 4.2 km/h 56 % 0.0 mm
15:00 13.2 °C 4.6 °C 1000.9 hPa ESE 3.7 km/h 3.7 km/h 56 % 0.0 mm
15:05 13.5 °C 4.9 °C 1000.9 hPa ESE 4.7 km/h 4.7 km/h 56 % 0.0 mm
15:10 13.5 °C 4.6 °C 1000.9 hPa SE 3.7 km/h 3.7 km/h 55 % 0.0 mm
15:15 13.3 °C 4.2 °C 999.9 hPa East 5.0 km/h 5.0 km/h 54 % 0.0 mm
15:20 13.2 °C 4.3 °C 999.9 hPa ESE 6.4 km/h 6.9 km/h 55 % 0.0 mm
15:25 13.0 °C 4.2 °C 999.9 hPa South 5.6 km/h 5.6 km/h 55 % 0.0 mm
15:30 13.1 °C 4.0 °C 1000.9 hPa SSW 5.6 km/h 5.6 km/h 54 % 0.0 mm
15:35 13.2 °C 4.3 °C 1000.9 hPa South 6.4 km/h 6.4 km/h 55 % 0.0 mm
15:40 13.1 °C 4.0 °C 1000.9 hPa East 7.4 km/h 7.4 km/h 54 % 0.0 mm
15:45 13.0 °C 3.9 °C 1000.9 hPa South 3.7 km/h   54 % 0.0 mm
15:50 13.1 °C 4.3 °C 1000.9 hPa South 3.7 km/h 3.7 km/h 55 % 0.0 mm
15:55 13.1 °C 4.0 °C 1000.9 hPa SE 2.3 km/h 3.2 km/h 54 % 0.0 mm
16:00 13.1 °C 4.3 °C 1000.9 hPa WSW 3.7 km/h 3.7 km/h 55 % 0.0 mm
16:05 13.0 °C 4.2 °C 1000.9 hPa WSW 5.6 km/h 5.6 km/h 55 % 0.0 mm
16:10 12.9 °C 4.1 °C 1000.9 hPa SW 3.7 km/h 3.9 km/h 55 % 0.0 mm
16:15 12.8 °C 4.0 °C 1001.9 hPa SW 3.9 km/h 3.9 km/h 55 % 0.0 mm
16:20 12.8 °C 4.0 °C 1001.9 hPa SSW 3.7 km/h 3.7 km/h 55 % 0.0 mm
16:25 12.8 °C 4.0 °C 1001.9 hPa SW 3.7 km/h 3.7 km/h 55 % 0.0 mm
16:30 12.7 °C 3.9 °C 1001.9 hPa SW 3.9 km/h 3.9 km/h 55 % 0.0 mm
16:35 12.6 °C 3.8 °C 1001.9 hPa SW 3.7 km/h 3.7 km/h 55 % 0.0 mm
16:40 12.6 °C 3.8 °C 1001.9 hPa WSW 1.9 km/h 1.9 km/h 55 % 0.0 mm
16:45 12.6 °C 3.8 °C 1001.9 hPa SW 2.3 km/h 2.6 km/h 55 % 0.0 mm
16:50 12.5 °C 3.9 °C 1001.9 hPa SW 3.7 km/h 3.7 km/h 56 % 0.0 mm
16:55 12.4 °C 4.1 °C 1001.9 hPa SW 1.4 km/h   57 % 0.0 mm
17:00 12.4 °C 4.3 °C 1001.9 hPa SW 1.9 km/h 1.9 km/h 58 % 0.0 mm
17:05 12.3 °C 4.5 °C 1001.9 hPa Calm     59 % 0.0 mm
17:10 12.2 °C 4.7 °C 1001.9 hPa Calm     60 % 0.0 mm
17:15 12.1 °C 4.6 °C 1000.9 hPa Calm     60 % 0.0 mm
17:20 11.9 °C 4.4 °C 1000.9 hPa South 3.7 km/h 3.7 km/h 60 % 0.0 mm
17:25 11.7 °C 4.7 °C 1000.9 hPa Calm     62 % 0.0 mm
17:30 11.7 °C 4.7 °C 1000.9 hPa Calm     62 % 0.0 mm
17:35 11.5 °C 4.9 °C 1000.9 hPa South 2.6 km/h 2.6 km/h 64 % 0.0 mm
17:40 11.4 °C 4.8 °C 1000.9 hPa Calm     64 % 0.0 mm
17:45 11.3 °C 4.7 °C 1000.9 hPa SW 3.7 km/h 3.7 km/h 64 % 0.0 mm
17:50 11.1 °C 4.6 °C 1000.9 hPa SSW 3.2 km/h 3.2 km/h 64 % 0.0 mm
17:55 11.1 °C 4.8 °C 1000.9 hPa WSW 3.7 km/h 3.7 km/h 65 % 0.0 mm
18:00 10.9 °C 4.8 °C 1001.9 hPa WSW 3.9 km/h 3.9 km/h 66 % 0.0 mm
18:05 10.7 °C 4.6 °C 1001.9 hPa WSW 5.6 km/h 5.6 km/h 66 % 0.0 mm
18:10 10.6 °C 4.7 °C 1001.9 hPa SW 6.1 km/h 6.1 km/h 67 % 0.0 mm
18:15 10.5 °C 4.8 °C 1001.9 hPa WSW 9.3 km/h 9.3 km/h 68 % 0.0 mm
18:20 10.3 °C 4.8 °C 1001.9 hPa West 3.7 km/h 3.7 km/h 69 % 0.0 mm
18:25 10.3 °C 4.8 °C 1001.9 hPa West 3.9 km/h 4.2 km/h 69 % 0.0 mm
18:30 10.2 °C 4.8 °C 1002.9 hPa WSW 5.6 km/h 5.6 km/h 69 % 0.0 mm
18:35 10.0 °C 4.6 °C 1002.9 hPa WSW 5.6 km/h 5.6 km/h 69 % 0.0 mm
18:40 9.7 °C 4.3 °C 1002.9 hPa WSW 1.9 km/h 1.9 km/h 69 % 0.0 mm
18:45 9.5 °C 4.5 °C 1002.9 hPa WSW 1.4 km/h   71 % 0.0 mm
18:50 9.1 °C 4.1 °C 1002.9 hPa WSW 5.6 km/h 5.6 km/h 71 % 0.0 mm
18:55 9.0 °C 4.4 °C 1002.9 hPa WSW 3.9 km/h 3.9 km/h 73 % 1.0 mm
19:00 8.9 °C 4.7 °C 1002.9 hPa WNW 1.4 km/h 1.4 km/h 75 % 1.0 mm
19:05 8.8 °C 4.6 °C 1002.9 hPa Calm     75 % 1.0 mm
19:10 8.7 °C 4.5 °C 1002.9 hPa West 1.9 km/h 1.9 km/h 75 % 1.0 mm
19:15 8.7 °C 4.5 °C 1002.9 hPa WSW 3.7 km/h 3.7 km/h 75 % 1.0 mm
19:20 8.5 °C 4.3 °C 1002.9 hPa WSW 1.9 km/h   75 % 1.0 mm
19:25 8.5 °C 4.1 °C 1002.9 hPa WSW 3.2 km/h 3.2 km/h 74 % 1.0 mm
19:30 8.4 °C 4.2 °C 1003.9 hPa SSW 3.7 km/h 3.7 km/h 75 % 1.0 mm
19:35 8.3 °C 4.3 °C 1003.9 hPa WSW 1.9 km/h   76 % 1.0 mm
19:40 8.3 °C 4.5 °C 1003.9 hPa Calm     77 % 1.0 mm
19:45 8.2 °C 4.6 °C 1003.9 hPa Calm     78 % 1.0 mm
19:50 8.3 °C 4.7 °C 1003.9 hPa ESE 1.9 km/h   78 % 1.0 mm
19:55 8.3 °C 4.7 °C 1003.9 hPa NW 3.7 km/h 3.7 km/h 78 % 0.0 mm
20:00 8.3 °C 4.7 °C 1003.9 hPa Calm     78 % 0.0 mm
20:05 8.3 °C 4.7 °C 1003.9 hPa NE 1.9 km/h   78 % 0.0 mm
20:10 8.3 °C 4.5 °C 1003.9 hPa WSW 3.7 km/h 3.7 km/h 77 % 0.0 mm
20:15 8.1 °C 4.5 °C 1003.9 hPa SW 7.4 km/h 7.4 km/h 78 % 0.0 mm
20:20 8.0 °C 4.6 °C 1003.9 hPa SSW 9.3 km/h 9.3 km/h 79 % 0.0 mm
20:25 7.9 °C 5.0 °C 1003.9 hPa WSW 9.3 km/h 9.3 km/h 82 % 0.0 mm
20:30 7.9 °C 5.0 °C 1001.9 hPa SW 9.3 km/h 9.3 km/h 82 % 0.0 mm
20:35 8.0 °C 5.3 °C 1001.9 hPa WSW 7.4 km/h 7.4 km/h 83 % 0.0 mm
20:40 8.0 °C 5.3 °C 1001.9 hPa SW 7.4 km/h 7.4 km/h 83 % 0.0 mm
20:45 8.0 °C 5.3 °C 1002.9 hPa West 3.7 km/h 3.7 km/h 83 % 0.0 mm
20:50 8.0 °C 5.1 °C 1002.9 hPa West 3.7 km/h 3.7 km/h 82 % 0.0 mm
20:55 8.0 °C 5.1 °C 1002.9 hPa West 5.0 km/h 5.0 km/h 82 % 0.0 mm
21:00 8.0 °C 5.1 °C 1002.9 hPa WSW 9.3 km/h 9.3 km/h 82 % 0.0 mm
21:05 8.0 °C 5.1 °C 1002.9 hPa WSW 5.6 km/h 5.6 km/h 82 % 0.0 mm
21:10 7.8 °C 4.7 °C 1002.9 hPa WSW 5.6 km/h 5.6 km/h 81 % 0.0 mm
21:15 7.7 °C 4.7 °C 1002.9 hPa West 5.6 km/h   81 % 0.0 mm
21:20 7.6 °C 4.6 °C 1002.9 hPa WSW 3.9 km/h 3.9 km/h 81 % 0.0 mm
21:25 7.5 °C 4.4 °C 1002.9 hPa WSW 5.6 km/h 5.6 km/h 81 % 0.0 mm
21:30 7.4 °C 4.3 °C 1002.9 hPa WSW 5.6 km/h 5.6 km/h 81 % 0.0 mm
21:35 7.4 °C 4.3 °C 1002.9 hPa WSW 7.4 km/h 7.4 km/h 81 % 0.0 mm
21:40 7.3 °C 4.1 °C 1002.9 hPa WSW 3.7 km/h 3.7 km/h 80 % 0.0 mm
21:50 7.1 °C 3.9 °C 1002.9 hPa SSW 7.4 km/h 7.4 km/h 80 % 0.0 mm
21:55 7.0 °C 3.8 °C 1002.9 hPa SW 3.9 km/h 3.9 km/h 80 % 0.0 mm
22:10 6.6 °C 3.4 °C 1002.9 hPa WSW 5.6 km/h 5.6 km/h 80 % 0.0 mm
22:15 6.5 °C 3.3 °C 1002.9 hPa SW 3.9 km/h 3.9 km/h 80 % 0.0 mm
22:20 6.5 °C 3.3 °C 1002.9 hPa WSW 4.7 km/h 4.7 km/h 80 % 0.0 mm
22:25 6.5 °C 3.3 °C 1002.9 hPa SW 5.6 km/h 5.6 km/h 80 % 0.0 mm
22:30 6.5 °C 3.3 °C 1001.9 hPa WSW 5.6 km/h 5.6 km/h 80 % 0.0 mm
22:35 6.5 °C 3.3 °C 1001.9 hPa WSW 3.9 km/h 4.2 km/h 80 % 0.0 mm
22:40 6.0 °C 3.0 °C 1001.9 hPa SW 3.7 km/h 3.7 km/h 81 % 0.0 mm
22:45 6.0 °C 3.0 °C 1003.9 hPa SW 3.7 km/h 3.7 km/h 81 % 0.0 mm
22:50 6.0 °C 3.0 °C 1003.9 hPa WSW 3.7 km/h 3.7 km/h 81 % 0.0 mm
22:55 6.0 °C 3.0 °C 1003.9 hPa WSW 5.6 km/h 5.6 km/h 81 % 0.0 mm
23:00 6.0 °C 3.0 °C 1003.9 hPa WSW 5.6 km/h 5.6 km/h 81 % 0.0 mm
Meteo Sesrovires
Elogis d' Weather Underground - 3.5 mb

Guio original per  Jim McMurry - jmcmurry@mwt.net Adaptat per a la plantilla per  Wim van der Kuil - Leuven-Template.eu

Trobareu la nostra informacio del temps tambe a:

Weather Underground

AWEKAS